createdAt,value
2018-07-14T00:00:27.442Z,71.35
2018-07-14T00:02:54.689Z,71.18
2018-07-14T00:05:21.979Z,71.40
2018-07-14T00:07:49.215Z,71.95
2018-07-14T00:10:16.510Z,71.88
2018-07-14T00:12:43.886Z,71.73
2018-07-14T00:15:11.201Z,71.53
2018-07-14T00:20:28.346Z,72.29
2018-07-14T00:22:55.574Z,72.26
2018-07-14T00:25:27.419Z,72.65
2018-07-14T00:27:54.669Z,73.13
2018-07-14T00:30:21.922Z,72.76
2018-07-14T00:32:49.166Z,72.87
2018-07-14T00:35:16.460Z,72.96
2018-07-14T00:37:43.726Z,73.42
2018-07-14T00:40:11.055Z,73.76
2018-07-14T00:42:38.285Z,73.95
2018-07-14T00:45:05.609Z,73.78
2018-07-14T00:47:32.861Z,73.95
2018-07-14T00:50:00.123Z,74.08
2018-07-14T00:52:27.370Z,73.78
2018-07-14T00:54:54.628Z,74.80
2018-07-14T00:57:21.847Z,74.57
2018-07-14T00:59:49.099Z,75.03
2018-07-14T01:02:16.355Z,75.34
2018-07-14T01:04:43.622Z,75.58
2018-07-14T01:07:10.895Z,75.62
2018-07-14T01:09:38.146Z,75.12
2018-07-14T01:12:05.422Z,75.61
2018-07-14T01:14:32.704Z,76.11
2018-07-14T01:16:59.992Z,76.03
2018-07-14T01:19:27.278Z,76.56
2018-07-14T01:21:54.560Z,75.99
2018-07-14T01:24:21.845Z,76.50
2018-07-14T01:26:49.117Z,76.26
2018-07-14T01:29:16.446Z,76.38
2018-07-14T01:31:43.709Z,76.65
2018-07-14T01:34:11.015Z,76.94
2018-07-14T01:36:38.281Z,77.22
2018-07-14T01:39:06.214Z,77.44
2018-07-14T01:41:33.532Z,77.23
2018-07-14T01:44:00.743Z,77.55
2018-07-14T01:46:28.032Z,77.11
2018-07-14T01:48:55.266Z,77.33
2018-07-14T01:51:22.530Z,76.91
2018-07-14T01:53:49.758Z,77.15
2018-07-14T01:56:17.012Z,77.01
2018-07-14T01:58:44.258Z,77.00
2018-07-14T02:01:11.529Z,77.25
2018-07-14T02:03:38.785Z,77.36
2018-07-14T02:06:06.064Z,77.44
2018-07-14T02:08:33.365Z,77.52
2018-07-14T02:11:00.730Z,77.67
2018-07-14T02:13:27.986Z,77.53
2018-07-14T02:15:55.266Z,78.00
2018-07-14T02:18:22.505Z,77.45
2018-07-14T02:20:49.769Z,77.65
2018-07-14T02:23:17.010Z,77.84
2018-07-14T02:25:44.291Z,78.03
2018-07-14T02:28:11.546Z,78.39
2018-07-14T02:30:38.822Z,78.76
2018-07-14T02:33:06.084Z,78.79
2018-07-14T02:35:33.346Z,78.95
2018-07-14T02:38:00.661Z,79.27
2018-07-14T02:40:27.947Z,79.64
2018-07-14T02:42:55.182Z,79.29
2018-07-14T02:45:22.463Z,79.25
2018-07-14T02:47:49.725Z,79.06
2018-07-14T02:50:17.002Z,79.41
2018-07-14T02:52:44.254Z,80.13
2018-07-14T02:55:11.559Z,79.55
2018-07-14T02:57:38.832Z,79.79
2018-07-14T03:00:06.178Z,80.27
2018-07-14T03:02:33.548Z,80.07
2018-07-14T03:05:00.884Z,79.73
2018-07-14T03:07:29.146Z,80.08
2018-07-14T03:09:56.476Z,79.68
2018-07-14T03:12:24.406Z,80.23
2018-07-14T03:14:51.906Z,80.11
2018-07-14T03:17:19.286Z,80.23
2018-07-14T03:19:47.905Z,81.10
2018-07-14T03:22:16.771Z,80.59
2018-07-14T03:24:45.266Z,80.74
2018-07-14T03:27:12.677Z,80.78
2018-07-14T03:29:40.007Z,80.94
2018-07-14T03:32:08.507Z,80.68
2018-07-14T03:34:35.883Z,80.93
2018-07-14T03:37:03.218Z,80.82
2018-07-14T03:39:30.543Z,80.77
2018-07-14T03:41:57.936Z,80.17
2018-07-14T03:44:25.237Z,81.18
2018-07-14T03:46:52.571Z,81.19
2018-07-14T03:49:20.498Z,81.56
2018-07-14T03:51:47.819Z,81.32
2018-07-14T03:54:15.169Z,81.76
2018-07-14T03:56:42.546Z,81.47
2018-07-14T03:59:09.866Z,81.70
2018-07-14T04:01:37.342Z,82.00
2018-07-14T04:04:04.971Z,81.92
2018-07-14T04:06:32.364Z,81.63
2018-07-14T04:08:59.674Z,82.20
2018-07-14T04:11:27.041Z,82.06
2018-07-14T04:13:54.330Z,81.66
2018-07-14T04:16:21.687Z,81.28
2018-07-14T04:18:48.999Z,80.81
2018-07-14T04:21:16.380Z,80.28
2018-07-14T04:23:43.855Z,80.13
2018-07-14T04:26:12.059Z,80.69
2018-07-14T04:28:39.382Z,79.92
2018-07-14T04:31:07.086Z,80.23
2018-07-14T04:33:34.402Z,80.01
2018-07-14T04:36:02.494Z,79.69
2018-07-14T04:38:29.899Z,79.65
2018-07-14T04:40:57.458Z,79.32
2018-07-14T04:43:24.822Z,78.81
2018-07-14T04:45:52.114Z,78.14
2018-07-14T04:48:19.471Z,77.66
2018-07-14T04:50:46.871Z,77.01
2018-07-14T04:53:14.271Z,76.99
2018-07-14T04:55:41.630Z,76.22
2018-07-14T04:58:09.053Z,75.82
2018-07-14T05:00:36.336Z,75.42
2018-07-14T05:03:03.697Z,75.10
2018-07-14T05:05:30.985Z,74.05
2018-07-14T05:07:58.339Z,73.53
2018-07-14T05:10:25.654Z,72.74
2018-07-14T05:12:53.168Z,72.08
2018-07-14T05:15:21.097Z,71.85
2018-07-14T05:17:48.452Z,70.67
2018-07-14T05:20:15.825Z,70.07
2018-07-14T05:22:43.218Z,69.43
2018-07-14T05:25:10.546Z,67.16
2018-07-14T05:27:37.910Z,65.07
2018-07-14T05:30:05.234Z,64.35
2018-07-14T05:32:32.643Z,63.02
2018-07-14T05:34:59.956Z,61.39
2018-07-14T05:37:27.328Z,60.37
2018-07-14T05:39:54.640Z,58.93
2018-07-14T05:42:22.060Z,57.57
2018-07-14T05:44:49.399Z,57.10
2018-07-14T05:47:16.742Z,56.33
2018-07-14T05:49:44.064Z,55.65
2018-07-14T05:52:12.228Z,55.95
2018-07-14T05:54:39.550Z,55.58
2018-07-14T05:57:06.855Z,54.85
2018-07-14T05:59:34.162Z,54.68
2018-07-14T06:02:01.513Z,54.17
2018-07-14T06:04:28.820Z,52.72
2018-07-14T06:06:56.144Z,52.80
2018-07-14T06:09:23.475Z,52.27
2018-07-14T06:11:50.792Z,50.59
2018-07-14T06:14:18.217Z,49.85
2018-07-14T06:16:45.478Z,48.70
2018-07-14T06:19:12.800Z,46.60
2018-07-14T06:21:40.731Z,46.51
2018-07-14T06:24:08.094Z,46.06
2018-07-14T06:26:35.441Z,46.12
2018-07-14T06:29:02.774Z,45.55
2018-07-14T06:31:30.106Z,44.91
2018-07-14T06:33:57.521Z,46.13
2018-07-14T06:36:24.789Z,46.09
2018-07-14T06:38:52.334Z,45.75
2018-07-14T06:41:19.690Z,45.34
2018-07-14T06:43:47.021Z,45.59
2018-07-14T06:46:14.382Z,44.62
2018-07-14T06:48:41.762Z,43.81
2018-07-14T06:51:09.112Z,44.64
2018-07-14T06:53:36.471Z,44.25
2018-07-14T06:56:03.814Z,43.22
2018-07-14T07:01:23.387Z,43.11
2018-07-14T07:03:50.714Z,42.57
2018-07-14T07:06:18.020Z,42.59
2018-07-14T07:08:45.375Z,42.50
2018-07-14T07:11:12.879Z,41.92
2018-07-14T07:13:41.036Z,41.66
2018-07-14T07:16:08.513Z,41.94
2018-07-14T07:18:35.997Z,41.08
2018-07-14T07:21:03.447Z,40.08
2018-07-14T07:23:30.978Z,40.50
2018-07-14T07:25:58.273Z,40.73
2018-07-14T07:28:25.628Z,41.00
2018-07-14T07:30:53.457Z,40.66
2018-07-14T07:33:20.797Z,40.70
2018-07-14T07:35:48.106Z,39.76
2018-07-14T07:38:15.462Z,39.88
2018-07-14T07:40:43.074Z,39.54
2018-07-14T07:43:11.045Z,39.26
2018-07-14T07:45:38.339Z,38.15
2018-07-14T07:48:05.661Z,38.86
2018-07-14T07:50:35.194Z,38.76
2018-07-14T07:53:02.559Z,37.87
2018-07-14T07:55:29.895Z,37.93
2018-07-14T07:57:57.127Z,38.08
2018-07-14T08:00:24.639Z,37.06
2018-07-14T08:02:51.992Z,36.41
2018-07-14T08:05:19.330Z,35.56
2018-07-14T08:07:46.655Z,35.15
2018-07-14T08:10:13.955Z,33.82
2018-07-14T08:12:41.237Z,32.65
2018-07-14T08:15:08.598Z,32.25
2018-07-14T08:17:35.957Z,31.93
2018-07-14T08:20:03.375Z,31.36
2018-07-14T08:22:30.681Z,30.34
2018-07-14T08:24:58.053Z,30.86
2018-07-14T08:27:25.408Z,32.38
2018-07-14T08:29:52.768Z,32.29
2018-07-14T08:32:20.040Z,31.59
2018-07-14T08:34:47.391Z,31.84
2018-07-14T08:37:14.719Z,31.49
2018-07-14T08:39:42.070Z,31.87
2018-07-14T08:42:09.347Z,31.01
2018-07-14T08:44:36.865Z,31.03
2018-07-14T08:47:04.495Z,30.84
2018-07-14T08:49:32.827Z,30.57
2018-07-14T08:52:00.137Z,30.31
2018-07-14T08:54:27.575Z,28.60
2018-07-14T08:56:54.877Z,27.82
2018-07-14T08:59:22.188Z,27.64
2018-07-14T09:01:49.495Z,27.92
2018-07-14T09:04:16.943Z,27.56
2018-07-14T09:06:44.297Z,26.44
2018-07-14T09:09:11.689Z,26.27
2018-07-14T09:11:59.021Z,26.46
2018-07-14T09:14:26.389Z,25.24
2018-07-14T09:16:53.667Z,25.95
2018-07-14T09:19:20.970Z,25.79
2018-07-14T09:21:48.281Z,26.18
2018-07-14T09:24:18.518Z,24.11
2018-07-14T09:26:45.797Z,24.52
2018-07-14T09:29:13.170Z,24.78
2018-07-14T09:31:40.509Z,24.44
2018-07-14T09:34:08.047Z,24.39
2018-07-14T09:36:35.338Z,23.75
2018-07-14T09:39:04.114Z,23.77
2018-07-14T09:41:31.455Z,23.73
2018-07-14T09:43:58.755Z,22.61
2018-07-14T09:46:26.137Z,23.37
2018-07-14T09:49:00.228Z,23.37
2018-07-14T09:51:27.551Z,22.70
2018-07-14T09:53:55.089Z,22.51
2018-07-14T09:56:22.458Z,21.92
2018-07-14T09:58:49.772Z,21.96
2018-07-14T10:01:17.141Z,22.18
2018-07-14T10:03:44.491Z,21.46
2018-07-14T10:06:12.285Z,22.11
2018-07-14T10:08:39.593Z,22.11
2018-07-14T10:11:06.930Z,23.32
2018-07-14T10:13:34.393Z,21.78
2018-07-14T10:16:01.748Z,22.38
2018-07-14T10:18:30.689Z,21.99
2018-07-14T10:20:58.040Z,21.89
2018-07-14T10:23:25.335Z,22.11
2018-07-14T10:25:52.753Z,22.12
2018-07-14T10:28:20.033Z,22.59
2018-07-14T10:30:47.371Z,22.33
2018-07-14T10:33:14.708Z,21.72
2018-07-14T10:35:42.027Z,21.24
2018-07-14T10:38:09.315Z,21.35
2018-07-14T10:40:36.822Z,21.43
2018-07-14T10:43:04.188Z,20.66
2018-07-14T10:45:32.700Z,21.56
2018-07-14T10:48:00.805Z,20.87
2018-07-14T10:50:28.200Z,20.58
2018-07-14T10:52:55.527Z,22.57
2018-07-14T10:55:22.895Z,24.00
2018-07-14T10:57:50.820Z,22.75
2018-07-14T11:00:18.187Z,22.11
2018-07-14T11:02:45.455Z,21.87
2018-07-14T11:05:12.965Z,20.97
2018-07-14T11:07:41.011Z,19.90
2018-07-14T11:10:08.354Z,19.41
2018-07-14T11:12:38.558Z,18.95
2018-07-14T11:15:05.937Z,20.61
2018-07-14T11:17:33.305Z,19.77
2018-07-14T11:20:00.642Z,19.35
2018-07-14T11:22:27.994Z,19.23
2018-07-14T11:24:55.309Z,19.01
2018-07-14T11:27:22.663Z,19.45
2018-07-14T11:29:49.949Z,19.77
2018-07-14T11:32:17.250Z,19.28
2018-07-14T11:34:44.990Z,19.97
2018-07-14T11:37:13.256Z,19.82
2018-07-14T11:39:40.555Z,21.14
2018-07-14T11:42:07.924Z,21.56
2018-07-14T11:44:35.275Z,20.74
2018-07-14T11:47:02.774Z,20.55
2018-07-14T11:49:30.555Z,20.92
2018-07-14T11:51:57.934Z,20.52
2018-07-14T11:54:25.227Z,20.68
2018-07-14T11:56:52.743Z,19.59
2018-07-14T11:59:20.040Z,19.17
2018-07-14T12:01:47.338Z,19.45
2018-07-14T12:04:14.714Z,20.12
2018-07-14T12:06:42.086Z,19.15
2018-07-14T12:09:09.571Z,19.28
2018-07-14T12:11:36.965Z,19.55
2018-07-14T12:14:04.278Z,18.90
2018-07-14T12:16:32.211Z,19.00
2018-07-14T12:18:59.504Z,18.94
2018-07-14T12:21:26.865Z,18.72
2018-07-14T12:23:54.167Z,18.82
2018-07-14T12:26:22.090Z,20.20
2018-07-14T12:28:49.804Z,20.06
2018-07-14T12:31:17.138Z,20.00
2018-07-14T12:33:45.099Z,20.23
2018-07-14T12:36:13.078Z,19.75
2018-07-14T12:38:40.526Z,20.04
2018-07-14T12:41:07.893Z,19.31
2018-07-14T12:43:35.237Z,19.38
2018-07-14T12:46:02.604Z,20.84
2018-07-14T12:48:29.818Z,21.86
2018-07-14T12:50:57.359Z,23.37
2018-07-14T12:53:25.306Z,23.76
2018-07-14T12:55:52.621Z,24.21
2018-07-14T12:58:19.972Z,23.59
2018-07-14T13:00:47.329Z,22.63
2018-07-14T13:03:14.750Z,22.67
2018-07-14T13:05:42.098Z,23.51
2018-07-14T13:08:09.456Z,24.64
2018-07-14T13:10:36.858Z,24.50
2018-07-14T13:13:04.298Z,25.17
2018-07-14T13:15:31.642Z,23.58
2018-07-14T13:17:59.025Z,22.87
2018-07-14T13:20:27.081Z,21.89
2018-07-14T13:22:54.638Z,21.69
2018-07-14T13:25:21.971Z,21.60
2018-07-14T13:27:49.329Z,21.44
2018-07-14T13:30:16.809Z,21.12
2018-07-14T13:32:44.109Z,20.81
2018-07-14T13:35:11.950Z,21.26
2018-07-14T13:37:39.350Z,21.03
2018-07-14T13:40:07.697Z,21.03
2018-07-14T13:42:35.028Z,21.30
2018-07-14T13:45:02.363Z,22.58
2018-07-14T13:47:29.700Z,22.87
2018-07-14T13:49:57.030Z,21.60
2018-07-14T13:52:24.430Z,21.02
2018-07-14T13:54:51.765Z,20.86
2018-07-14T13:57:19.110Z,21.61
2018-07-14T13:59:46.479Z,22.16
2018-07-14T14:02:13.846Z,22.59
2018-07-14T14:04:41.148Z,22.20
2018-07-14T14:07:08.492Z,23.04
2018-07-14T14:09:35.790Z,23.85
2018-07-14T14:12:03.266Z,24.18
2018-07-14T14:14:30.580Z,24.92
2018-07-14T14:16:57.961Z,24.41
2018-07-14T14:19:25.357Z,23.57
2018-07-14T14:21:52.701Z,23.98
2018-07-14T14:24:20.439Z,24.07
2018-07-14T14:26:47.905Z,23.97
2018-07-14T14:29:15.227Z,23.13
2018-07-14T14:31:42.591Z,22.99
2018-07-14T14:34:10.518Z,23.31
2018-07-14T14:36:38.457Z,24.04
2018-07-14T14:39:07.416Z,24.24
2018-07-14T14:41:34.769Z,23.33
2018-07-14T14:44:02.097Z,23.54
2018-07-14T14:46:29.388Z,24.69
2018-07-14T14:48:57.335Z,24.52
2018-07-14T14:51:24.645Z,25.10
2018-07-14T14:53:52.183Z,24.79
2018-07-14T14:56:19.498Z,24.42
2018-07-14T14:58:46.924Z,24.63
2018-07-14T15:01:14.322Z,25.57
2018-07-14T15:03:41.823Z,25.79
2018-07-14T15:06:09.160Z,25.68
2018-07-14T15:08:36.519Z,24.79
2018-07-14T15:11:03.884Z,26.34
2018-07-14T15:13:31.334Z,27.15
2018-07-14T15:15:58.919Z,26.73
2018-07-14T15:18:27.437Z,27.71
2018-07-14T15:20:54.868Z,28.09
2018-07-14T15:23:22.218Z,27.84
2018-07-14T15:28:23.545Z,28.06
2018-07-14T15:30:50.874Z,28.62
2018-07-14T15:33:18.361Z,28.26
2018-07-14T15:35:45.940Z,28.70
2018-07-14T15:38:13.310Z,28.57
2018-07-14T15:40:40.663Z,27.62
2018-07-14T15:43:07.987Z,28.20
2018-07-14T15:45:35.853Z,28.55
2018-07-14T15:48:04.108Z,28.48
2018-07-14T15:50:31.427Z,28.57
2018-07-14T15:52:58.951Z,28.58
2018-07-14T15:55:26.246Z,28.91
2018-07-14T15:57:53.655Z,28.68
2018-07-14T16:00:20.989Z,28.51
2018-07-14T16:02:48.311Z,28.25
2018-07-14T16:05:15.716Z,27.68
2018-07-14T16:07:43.098Z,27.60
2018-07-14T16:10:10.475Z,27.57
2018-07-14T16:12:37.798Z,27.66
2018-07-14T16:15:05.214Z,27.54
2018-07-14T16:17:32.645Z,27.45
2018-07-14T16:20:00.047Z,28.15
2018-07-14T16:22:27.428Z,27.69
2018-07-14T16:24:54.817Z,26.73
2018-07-14T16:27:22.144Z,27.23
2018-07-14T16:29:49.493Z,27.53
2018-07-14T16:32:16.813Z,27.55
2018-07-14T16:34:44.164Z,27.99
2018-07-14T16:37:11.697Z,28.00
2018-07-14T16:39:39.725Z,28.58
2018-07-14T16:42:07.082Z,28.56
2018-07-14T16:44:34.593Z,28.94
2018-07-14T16:47:02.763Z,29.24
2018-07-14T16:49:30.080Z,29.49
2018-07-14T16:51:57.402Z,29.42
2018-07-14T16:54:24.722Z,29.33
2018-07-14T16:56:52.612Z,29.65
2018-07-14T16:59:20.012Z,29.25
2018-07-14T17:01:47.339Z,28.96
2018-07-14T17:04:14.803Z,29.88
2018-07-14T17:06:42.640Z,28.38
2018-07-14T17:09:10.479Z,29.04
2018-07-14T17:11:37.815Z,28.83
2018-07-14T17:14:05.166Z,28.69
2018-07-14T17:16:32.446Z,28.73
2018-07-14T17:18:59.818Z,28.65
2018-07-14T17:21:27.163Z,28.96
2018-07-14T17:23:54.794Z,29.53
2018-07-14T17:26:22.346Z,30.43
2018-07-14T17:28:50.053Z,30.13
2018-07-14T17:31:17.532Z,30.72
2018-07-14T17:33:45.095Z,30.96
2018-07-14T17:36:12.662Z,31.70
2018-07-14T17:38:40.795Z,31.17
2018-07-14T17:41:09.297Z,31.38
2018-07-14T17:43:37.015Z,30.95
2018-07-14T17:46:04.830Z,31.26
2018-07-14T17:48:32.142Z,30.87
2018-07-14T17:50:59.561Z,31.21
2018-07-14T17:53:26.898Z,31.56
2018-07-14T17:55:54.382Z,32.01
2018-07-14T17:58:21.722Z,32.32
2018-07-14T18:00:49.126Z,32.01
2018-07-14T18:03:16.532Z,32.26
2018-07-14T18:05:43.909Z,32.16
2018-07-14T18:08:11.593Z,32.55
2018-07-14T18:10:39.001Z,32.88
2018-07-14T18:13:07.636Z,32.92
2018-07-14T18:15:35.550Z,33.11
2018-07-14T18:18:03.020Z,32.71
2018-07-14T18:20:30.363Z,32.92
2018-07-14T18:22:58.521Z,33.71
2018-07-14T18:25:25.860Z,33.45
2018-07-14T18:27:53.225Z,33.93
2018-07-14T18:30:20.622Z,34.16
2018-07-14T18:32:47.951Z,34.70
2018-07-14T18:35:15.307Z,35.16
2018-07-14T18:37:43.391Z,36.28
2018-07-14T18:40:11.734Z,37.43
2018-07-14T18:42:39.823Z,38.23
2018-07-14T18:45:07.378Z,38.75
2018-07-14T18:47:34.786Z,38.75
2018-07-14T18:50:02.228Z,39.37
2018-07-14T18:52:29.762Z,39.94
2018-07-14T18:54:57.134Z,40.32
2018-07-14T18:57:24.589Z,40.17
2018-07-14T18:59:51.997Z,40.38
2018-07-14T19:02:19.431Z,40.68
2018-07-14T19:04:46.783Z,41.25
2018-07-14T19:07:14.218Z,41.67
2018-07-14T19:09:41.814Z,41.88
2018-07-14T19:12:09.251Z,41.57
2018-07-14T19:14:36.781Z,42.42
2018-07-14T19:17:04.950Z,42.88
2018-07-14T19:19:32.351Z,43.27
2018-07-14T19:22:00.033Z,44.06
2018-07-14T19:24:27.460Z,44.11
2018-07-14T19:26:55.032Z,44.31
2018-07-14T19:29:23.304Z,44.36
2018-07-14T19:31:52.540Z,45.12
2018-07-14T19:34:20.203Z,45.36
2018-07-14T19:36:47.823Z,45.51
2018-07-14T19:39:15.287Z,45.27
2018-07-14T19:41:42.760Z,45.90
2018-07-14T19:44:10.170Z,45.68
2018-07-14T19:46:37.569Z,46.08
2018-07-14T19:49:04.937Z,46.55
2018-07-14T19:51:32.369Z,46.33
2018-07-14T19:53:59.766Z,46.50
2018-07-14T19:56:27.139Z,46.97
2018-07-14T19:58:54.470Z,46.99
2018-07-14T20:01:21.774Z,47.80
2018-07-14T20:03:49.108Z,47.96
2018-07-14T20:06:16.552Z,47.90
2018-07-14T20:08:43.884Z,48.42
2018-07-14T20:11:11.981Z,48.76
2018-07-14T20:13:39.285Z,48.79
2018-07-14T20:16:07.310Z,48.79
2018-07-14T20:18:34.769Z,49.15
2018-07-14T20:21:02.097Z,49.60
2018-07-14T20:23:29.474Z,50.25
2018-07-14T20:25:56.924Z,50.41
2018-07-14T20:28:24.330Z,50.76
2018-07-14T20:30:51.629Z,51.14
2018-07-14T20:33:18.920Z,51.98
2018-07-14T20:35:46.543Z,52.57
2018-07-14T20:38:13.879Z,51.96
2018-07-14T20:40:41.190Z,51.76
2018-07-14T20:43:08.601Z,51.29
2018-07-14T20:45:35.937Z,51.26
2018-07-14T20:48:03.258Z,51.03
2018-07-14T20:50:30.562Z,50.71
2018-07-14T20:52:57.869Z,50.79
2018-07-14T20:55:25.855Z,50.78
2018-07-14T20:57:53.158Z,50.87
2018-07-14T21:00:20.390Z,50.85
2018-07-14T21:02:47.634Z,50.43
2018-07-14T21:05:14.878Z,50.44
2018-07-14T21:07:42.123Z,50.53
2018-07-14T21:10:09.356Z,51.09
2018-07-14T21:12:36.776Z,51.19
2018-07-14T21:15:03.950Z,51.54
2018-07-14T21:17:31.192Z,51.70
2018-07-14T21:19:58.433Z,51.69
2018-07-14T21:22:25.723Z,51.75
2018-07-14T21:24:53.006Z,52.01
2018-07-14T21:27:20.237Z,52.86
2018-07-14T21:29:47.473Z,53.42
2018-07-14T21:32:14.760Z,53.74
2018-07-14T21:34:42.006Z,54.34
2018-07-14T21:37:09.255Z,54.24
2018-07-14T21:39:36.491Z,54.35
2018-07-14T21:42:03.927Z,54.48
2018-07-14T21:44:31.163Z,54.27
2018-07-14T21:46:58.454Z,54.48
2018-07-14T21:49:25.688Z,54.37
2018-07-14T21:51:52.959Z,54.94
2018-07-14T21:54:20.219Z,55.32
2018-07-14T21:56:47.476Z,55.57
2018-07-14T21:59:14.711Z,56.17
2018-07-14T22:01:47.649Z,57.20
2018-07-14T22:04:14.887Z,57.52
2018-07-14T22:06:42.149Z,57.67
2018-07-14T22:09:09.397Z,58.69
2018-07-14T22:11:36.650Z,59.05
2018-07-14T22:14:04.247Z,59.25
2018-07-14T22:16:31.530Z,59.00
2018-07-14T22:18:58.779Z,59.17
2018-07-14T22:21:26.034Z,60.22
2018-07-14T22:23:53.307Z,60.04
2018-07-14T22:26:20.534Z,59.86
2018-07-14T22:28:47.806Z,60.06
2018-07-14T22:31:15.036Z,60.80
2018-07-14T22:33:42.273Z,60.29
2018-07-14T22:36:09.493Z,61.52
2018-07-14T22:38:36.766Z,61.62
2018-07-14T22:41:03.998Z,61.94
2018-07-14T22:43:31.260Z,61.65
2018-07-14T22:45:58.481Z,62.04
2018-07-14T22:48:28.018Z,62.04
2018-07-14T22:50:55.278Z,61.61
2018-07-14T22:53:22.569Z,61.19
2018-07-14T22:55:49.794Z,61.51
2018-07-14T22:58:17.060Z,61.25
2018-07-14T23:00:44.309Z,60.96
2018-07-14T23:03:11.634Z,60.28
2018-07-14T23:05:38.857Z,60.67
2018-07-14T23:08:06.159Z,60.87
2018-07-14T23:10:33.407Z,61.54
2018-07-14T23:13:00.663Z,61.37
2018-07-14T23:15:27.912Z,62.10
2018-07-14T23:17:55.191Z,61.48
2018-07-14T23:20:22.422Z,61.93
2018-07-14T23:22:49.769Z,61.62
2018-07-14T23:25:16.988Z,62.06
2018-07-14T23:27:44.250Z,61.37
2018-07-14T23:30:11.478Z,61.62
2018-07-14T23:32:38.784Z,61.77
2018-07-14T23:35:06.046Z,61.70
2018-07-14T23:37:33.275Z,62.38
2018-07-14T23:40:00.528Z,62.80
2018-07-14T23:42:27.762Z,62.10
2018-07-14T23:44:55.007Z,62.91
2018-07-14T23:47:22.244Z,62.44
2018-07-14T23:49:49.494Z,62.62
2018-07-14T23:52:16.705Z,63.08
2018-07-14T23:54:44.038Z,63.23
2018-07-14T23:57:13.506Z,63.83
2018-07-14T23:59:40.756Z,63.65
